createdAt,value
2017-07-05T00:01:06.115Z,0
2017-07-05T00:11:02.147Z,0
2017-07-05T00:21:04.061Z,0
2017-07-05T00:31:02.190Z,0
2017-07-05T00:41:02.142Z,0
2017-07-05T00:51:02.254Z,0
2017-07-05T01:01:02.225Z,0
2017-07-05T01:11:02.204Z,0
2017-07-05T01:21:02.194Z,0
2017-07-05T01:31:02.203Z,0
2017-07-05T01:41:02.244Z,0
2017-07-05T01:51:02.308Z,0
2017-07-05T02:01:02.287Z,0
2017-07-05T02:11:02.353Z,0
2017-07-05T02:21:02.257Z,0
2017-07-05T02:31:02.324Z,4
2017-07-05T02:41:02.315Z,8
2017-07-05T02:51:02.443Z,16
2017-07-05T03:01:02.506Z,52
2017-07-05T03:11:02.436Z,136
2017-07-05T03:21:02.490Z,176
2017-07-05T03:31:02.561Z,368
2017-07-05T03:41:02.302Z,532
2017-07-05T03:51:02.485Z,896
2017-07-05T04:01:02.400Z,1848
2017-07-05T04:11:02.367Z,2772
2017-07-05T04:21:02.375Z,3752
2017-07-05T04:31:02.357Z,2428
2017-07-05T04:41:02.440Z,3820
2017-07-05T04:51:02.416Z,7048
2017-07-05T05:01:02.506Z,7832
2017-07-05T05:11:02.429Z,10616
2017-07-05T05:21:02.468Z,10076
2017-07-05T05:31:02.601Z,8680
2017-07-05T05:41:02.632Z,9700
2017-07-05T05:51:06.012Z,12364
2017-07-05T06:01:02.487Z,35104
2017-07-05T06:11:02.465Z,37536
2017-07-05T06:21:02.978Z,38656
2017-07-05T06:31:02.455Z,44352
2017-07-05T06:41:02.503Z,46016
2017-07-05T06:51:02.542Z,54304
2017-07-05T07:01:02.581Z,56000
2017-07-05T07:11:02.493Z,55296
2017-07-05T07:21:02.617Z,53632
2017-07-05T07:31:02.754Z,50720
2017-07-05T07:41:02.624Z,66752
2017-07-05T07:51:02.474Z,63392
2017-07-05T08:01:02.458Z,56800
2017-07-05T08:11:02.484Z,64480
2017-07-05T08:21:02.538Z,72544
2017-07-05T08:31:02.926Z,71488
2017-07-05T08:41:02.728Z,76160
2017-07-05T08:51:02.532Z,71104
2017-07-05T09:01:02.582Z,72384
2017-07-05T09:11:02.591Z,21280
2017-07-05T09:21:02.691Z,16952
2017-07-05T09:31:02.560Z,16976
2017-07-05T09:41:02.554Z,14744
2017-07-05T09:51:02.556Z,12304
2017-07-05T10:01:02.521Z,14468
2017-07-05T10:11:02.713Z,17188
2017-07-05T10:21:02.634Z,21664
2017-07-05T10:31:02.552Z,14720
2017-07-05T10:41:02.532Z,14592
2017-07-05T10:51:02.497Z,12616
2017-07-05T11:01:02.579Z,15788
2017-07-05T11:11:02.593Z,13652
2017-07-05T11:21:02.525Z,13308
2017-07-05T11:31:02.557Z,12848
2017-07-05T11:41:03.176Z,16772
2017-07-05T11:51:02.573Z,14972
2017-07-05T12:01:02.887Z,12720
2017-07-05T12:11:08.839Z,13912
2017-07-05T12:21:02.614Z,14120
2017-07-05T12:31:02.758Z,17024
2017-07-05T12:41:02.637Z,11464
2017-07-05T12:51:02.617Z,9312
2017-07-05T13:01:02.682Z,13948
2017-07-05T13:11:03.185Z,15444
2017-07-05T13:21:02.819Z,13196
2017-07-05T13:31:02.822Z,10800
2017-07-05T13:41:15.853Z,11152
2017-07-05T13:51:03.503Z,14896
2017-07-05T14:01:02.694Z,10476
2017-07-05T14:11:02.714Z,13864
2017-07-05T14:21:02.715Z,8964
2017-07-05T14:31:02.609Z,7844
2017-07-05T14:41:02.947Z,9940
2017-07-05T14:51:02.681Z,11276
2017-07-05T15:01:02.697Z,11252
2017-07-05T15:21:50.456Z,10424
2017-07-05T15:22:31.306Z,10076
2017-07-05T15:32:32.651Z,8248
2017-07-05T15:42:31.163Z,8336
2017-07-05T15:52:31.255Z,11104
2017-07-05T16:02:31.191Z,6536
2017-07-05T16:12:31.229Z,6980
2017-07-05T16:22:31.235Z,6584
2017-07-05T16:32:31.325Z,10288
2017-07-05T16:42:31.515Z,6636
2017-07-05T16:52:31.220Z,6924
2017-07-05T17:02:31.274Z,4200
2017-07-05T17:12:31.341Z,5768
2017-07-05T17:22:31.461Z,3824
2017-07-05T17:32:31.331Z,4004
2017-07-05T17:42:31.207Z,4832
2017-07-05T17:52:31.254Z,2252
2017-07-05T18:02:31.338Z,1904
2017-07-05T18:12:31.322Z,1920
2017-07-05T18:22:31.216Z,2128
2017-07-05T18:32:31.274Z,2820
2017-07-05T18:42:31.332Z,2368
2017-07-05T18:52:31.216Z,1896
2017-07-05T19:02:31.309Z,1428
2017-07-05T19:12:31.242Z,952
2017-07-05T19:22:31.226Z,720
2017-07-05T19:32:31.245Z,436
2017-07-05T19:42:31.620Z,256
2017-07-05T19:52:31.277Z,128
2017-07-05T20:02:31.372Z,56
2017-07-05T20:12:38.670Z,12
2017-07-05T20:22:35.306Z,4
2017-07-05T20:32:31.411Z,4
2017-07-05T20:42:31.798Z,4
2017-07-05T20:52:32.639Z,0
2017-07-05T21:02:31.368Z,0
2017-07-05T21:12:31.713Z,4
2017-07-05T21:22:31.402Z,0
2017-07-05T21:32:31.561Z,0
2017-07-05T21:42:31.465Z,0
2017-07-05T21:52:31.546Z,4
2017-07-05T22:02:31.380Z,0
2017-07-05T22:12:31.634Z,0
2017-07-05T22:22:31.445Z,0
2017-07-05T22:32:31.331Z,0
2017-07-05T22:42:31.321Z,0
2017-07-05T22:52:31.308Z,0
2017-07-05T23:02:31.315Z,0
2017-07-05T23:12:31.325Z,0
2017-07-05T23:22:31.382Z,0
2017-07-05T23:32:31.700Z,0
2017-07-05T23:42:31.442Z,0
2017-07-05T23:52:31.751Z,0
